Terminal Aerodrome Forecast
Issued by NWS Columbia, SC

Home | Current Version | Previous Version | Text Only | Print | Product List | Glossary On
Versions: 1 2 3 4 5 6 7 8 9 10 11 12 13 14 15 16 17 18 19 20 21 22 23 24 25 26 27 28 29 30 31 32 33 34 35
000
FTUS42 KCAE 181700
TAFCAE
TAF
KCAE 181720Z 1818/1918 VRB05KT 5SM -RA BR BKN015 BKN025
      TEMPO 1819/1821 3SM SHRA OVC012
     FM182100 VRB04KT P6SM VCSH BKN030
     FM190500 10004KT P6SM BKN009
     FM190900 12005KT 4SM -RA BR OVC006
     FM191400 15010KT 3SM SHRA OVC012=

USA.gov is the U.S. government's official web portal to all federal, state and local government web resources and services.